Time;durP1;ratioP1;P1;durP2;ratioP2;P2;SDS_P1;SDS_P2;PMS_P1;PMS_P2;Temp;Humidity;BMP_temperature;BMP_pressure;BME280_temperature;BME280_humidity;BME280_pressure;Samples;Min_cycle;Max_cycle;Signal;HPM_P1;HPM_P2
2023/12/22 00:01:44;;;;;;;32.00;13.70;;;;;;;4.22;82.63;96670.44;104995;1255;61373;-66
2023/12/22 00:04:11;;;;;;;25.50;10.90;;;;;;;4.22;82.79;96664.02;104706;1258;139313;-66
2023/12/22 00:06:37;;;;;;;18.90;8.20;;;;;;;4.22;82.90;96668.54;104797;1256;64639;-66
2023/12/22 00:09:04;;;;;;;53.20;23.70;;;;;;;4.22;82.85;96662.63;104866;1256;72893;-66
2023/12/22 00:11:31;;;;;;;38.30;18.00;;;;;;;4.23;82.92;96659.34;104756;1259;138086;-66
2023/12/22 00:13:57;;;;;;;39.00;18.10;;;;;;;4.25;82.92;96635.34;104923;1256;61312;-65
2023/12/22 00:16:24;;;;;;;52.10;23.30;;;;;;;4.25;82.93;96620.77;104713;1255;138383;-66
2023/12/22 00:18:52;;;;;;;41.30;19.30;;;;;;;4.26;83.00;96618.50;104721;1260;67106;-66
2023/12/22 00:21:19;;;;;;;46.00;22.10;;;;;;;4.25;82.86;96625.11;104663;1257;139458;-67
2023/12/22 00:23:45;;;;;;;31.10;14.60;;;;;;;4.22;82.83;96617.70;104893;1256;61324;-65
2023/12/22 00:26:12;;;;;;;23.30;11.00;;;;;;;4.22;82.95;96617.00;104825;1257;61399;-64
2023/12/22 00:28:39;;;;;;;37.70;17.80;;;;;;;4.21;82.96;96630.20;104575;1257;138431;-66
2023/12/22 00:31:05;;;;;;;26.70;13.20;;;;;;;4.19;82.91;96638.91;104814;1258;67271;-66
2023/12/22 00:33:32;;;;;;;38.80;16.70;;;;;;;4.17;82.99;96649.35;104605;1256;139890;-66
2023/12/22 00:35:59;;;;;;;42.30;19.90;;;;;;;4.16;83.15;96642.95;104726;1256;61398;-65
2023/12/22 00:38:25;;;;;;;45.90;19.70;;;;;;;4.14;83.11;96643.68;104735;1260;61295;-65
2023/12/22 00:40:52;;;;;;;38.80;17.70;;;;;;;4.09;82.93;96638.02;104854;1256;138330;-65
2023/12/22 00:43:19;;;;;;;22.00;11.60;;;;;;;4.03;82.82;96632.38;104887;1259;65896;-65
2023/12/22 00:45:46;;;;;;;9.80;5.50;;;;;;;3.92;82.70;96636.20;104719;1256;138667;-67
2023/12/22 00:48:12;;;;;;;19.70;12.30;;;;;;;3.80;82.52;96640.01;104896;1256;61267;-67
2023/12/22 00:50:39;;;;;;;13.90;9.50;;;;;;;3.72;82.70;96640.30;104800;1256;61189;-67
2023/12/22 00:53:06;;;;;;;16.70;9.00;;;;;;;3.71;82.98;96637.36;104675;1256;138414;-65
2023/12/22 00:55:32;;;;;;;17.10;9.10;;;;;;;3.74;83.13;96639.25;104954;1260;66588;-65
2023/12/22 00:57:59;;;;;;;19.50;10.30;;;;;;;3.74;82.99;96641.84;104765;1257;138381;-66
2023/12/22 01:00:25;;;;;;;24.70;13.60;;;;;;;3.71;82.97;96648.46;104773;1256;61312;-66
2023/12/22 01:02:52;;;;;;;9.00;5.00;;;;;;;3.65;82.90;96656.52;104733;1256;61236;-66
2023/12/22 01:05:19;;;;;;;18.90;11.10;;;;;;;3.62;82.97;96666.27;104632;1256;138297;-67
2023/12/22 01:07:46;;;;;;;12.10;7.30;;;;;;;3.63;83.23;96672.84;104705;1256;66366;-66
2023/12/22 01:10:12;;;;;;;9.30;4.90;;;;;;;3.64;83.30;96680.29;104637;1260;138698;-66
2023/12/22 01:12:39;;;;;;;10.80;6.10;;;;;;;3.62;83.36;96678.75;104727;1256;61274;-66
2023/12/22 01:15:06;;;;;;;9.00;5.70;;;;;;;3.66;83.37;96680.77;104857;1260;61102;-66
2023/12/22 01:17:33;;;;;;;10.00;5.70;;;;;;;3.68;83.37;96679.54;108870;1256;138733;-66
2023/12/22 01:20:00;;;;;;;8.60;4.90;;;;;;;3.70;83.47;96681.77;109010;1255;65047;-66
2023/12/22 01:22:27;;;;;;;8.30;4.80;;;;;;;3.73;83.40;96683.98;108857;1255;139233;-66
2023/12/22 01:24:53;;;;;;;7.40;4.10;;;;;;;3.73;83.27;96687.45;108975;1255;59636;-67
2023/12/22 01:27:20;;;;;;;6.90;3.80;;;;;;;3.74;83.25;96690.04;108882;1256;139232;-66
2023/12/22 01:29:46;;;;;;;6.10;3.10;;;;;;;3.77;83.47;96694.51;106420;1255;72997;-65
2023/12/22 01:32:13;;;;;;;8.20;4.30;;;;;;;3.79;83.46;96699.16;104766;1256;65146;-65
2023/12/22 01:34:40;;;;;;;5.30;3.30;;;;;;;3.82;83.38;96703.97;104597;1255;138335;-66
2023/12/22 01:37:07;;;;;;;6.50;4.20;;;;;;;3.84;83.47;96710.19;104661;1256;62677;-64
2023/12/22 01:39:33;;;;;;;4.40;2.60;;;;;;;3.84;83.31;96712.98;104836;1256;138219;-66
2023/12/22 01:42:00;;;;;;;8.20;4.60;;;;;;;3.82;83.35;96714.90;104950;1256;74781;-65
2023/12/22 01:44:27;;;;;;;8.30;4.70;;;;;;;3.82;83.29;96727.39;105096;1259;67611;-65
2023/12/22 01:46:53;;;;;;;6.40;3.60;;;;;;;3.81;83.30;96726.35;104998;1258;138397;-65
2023/12/22 01:49:21;;;;;;;2.80;2.00;;;;;;;3.81;83.32;96736.42;104884;1259;61374;-65
2023/12/22 01:51:48;;;;;;;7.20;3.20;;;;;;;3.78;83.27;96736.63;104761;1256;138805;-65
2023/12/22 01:54:15;;;;;;;6.00;2.80;;;;;;;3.75;83.11;96727.82;104656;1257;75118;-67
2023/12/22 01:56:42;;;;;;;3.50;2.30;;;;;;;3.67;83.07;96715.62;104920;1256;64811;-64
2023/12/22 01:59:09;;;;;;;3.00;2.00;;;;;;;3.60;83.04;96709.46;108824;1255;138301;-65
2023/12/22 02:01:35;;;;;;;2.50;1.80;;;;;;;3.57;83.13;96698.23;108934;1256;59216;-65
2023/12/22 02:04:02;;;;;;;1.40;1.30;;;;;;;3.54;82.95;96676.25;107096;1256;138297;-66
2023/12/22 02:06:30;;;;;;;2.90;1.70;;;;;;;3.50;82.90;96669.02;104928;1256;74234;-66
2023/12/22 02:08:57;;;;;;;2.10;1.70;;;;;;;3.43;82.90;96668.06;104755;1256;67142;-66
2023/12/22 02:11:24;;;;;;;2.80;2.00;;;;;;;3.38;82.91;96684.94;104639;1256;137649;-66
2023/12/22 02:13:50;;;;;;;2.60;2.10;;;;;;;3.31;82.87;96689.17;104810;1258;61200;-66
2023/12/22 02:16:40;;;;;;;2.30;1.80;;;;;;;3.27;82.87;96688.54;104754;1257;137501;-67
2023/12/22 02:19:45;;;;;;;4.10;2.30;;;;;;;3.20;82.96;96680.46;105020;1256;75375;-66
2023/12/22 02:22:12;;;;;;;8.20;4.50;;;;;;;3.17;82.91;96676.17;104223;1262;138461;-65
2023/12/22 02:24:39;;;;;;;6.20;2.40;;;;;;;3.14;82.81;96674.48;104373;1262;72403;-66
2023/12/22 02:27:14;;;;;;;4.80;2.70;;;;;;;3.10;82.71;96669.84;104457;1262;61429;-66
2023/12/22 02:29:43;;;;;;;4.60;2.70;;;;;;;3.07;82.74;96670.39;104370;1262;61470;-65
2023/12/22 02:32:14;;;;;;;5.10;2.60;;;;;;;3.06;82.51;96678.73;104509;1265;73171;-66
2023/12/22 02:34:41;;;;;;;4.20;2.40;;;;;;;3.05;82.65;96678.20;108491;1261;138981;-65
2023/12/22 02:37:08;;;;;;;6.00;2.40;;;;;;;3.05;82.60;96682.89;108570;1261;71213;-66
2023/12/22 02:39:35;;;;;;;12.00;4.70;;;;;;;3.07;82.56;96682.52;108485;1261;139148;-65
2023/12/22 02:42:03;;;;;;;16.60;7.00;;;;;;;3.10;82.60;96688.21;108529;1262;60401;-65
2023/12/22 02:44:30;;;;;;;11.00;4.70;;;;;;;3.10;82.57;96689.58;108677;1261;74898;-65
2023/12/22 02:46:57;;;;;;;11.90;5.00;;;;;;;3.11;82.43;96688.71;108534;1261;138608;-65
2023/12/22 02:49:24;;;;;;;13.70;6.20;;;;;;;3.12;82.52;96690.77;108566;1261;72021;-65
2023/12/22 02:51:50;;;;;;;17.20;6.30;;;;;;;3.17;82.47;96699.23;108443;1262;139047;-65
2023/12/22 02:54:17;;;;;;;10.70;4.60;;;;;;;3.20;82.45;96703.34;105642;1265;61441;-66
2023/12/22 02:56:46;;;;;;;9.70;3.80;;;;;;;3.25;82.28;96716.27;104446;1261;73582;-65
2023/12/22 02:59:13;;;;;;;16.30;6.10;;;;;;;3.29;82.37;96715.89;104812;1260;137521;-67
2023/12/22 03:01:39;;;;;;;26.90;8.90;;;;;;;3.32;82.33;96727.11;104813;1258;72134;-68
2023/12/22 03:04:06;;;;;;;96.40;31.60;;;;;;;3.35;82.42;96728.65;104666;1259;137705;-67
2023/12/22 03:06:33;;;;;;;56.50;19.40;;;;;;;3.35;82.37;96727.95;104770;1256;61339;-66
2023/12/22 03:09:00;;;;;;;63.70;23.00;;;;;;;3.30;82.37;96723.66;104835;1256;74193;-65
2023/12/22 03:11:26;;;;;;;33.90;14.20;;;;;;;3.26;82.34;96733.06;104626;1260;138545;-66
2023/12/22 03:13:53;;;;;;;47.90;21.20;;;;;;;3.23;82.45;96731.90;104740;1260;72573;-65
2023/12/22 03:16:20;;;;;;;22.40;10.30;;;;;;;3.20;82.49;96729.67;104889;1256;138594;-66
2023/12/22 03:18:46;;;;;;;14.70;7.40;;;;;;;3.19;82.50;96733.31;104856;1259;61361;-66
2023/12/22 03:21:19;;;;;;;9.40;4.70;;;;;;;3.18;82.54;96737.30;104927;1256;75919;-66
2023/12/22 03:23:46;;;;;;;11.70;6.30;;;;;;;3.17;82.58;96725.20;108973;1256;68916;-66
2023/12/22 03:26:13;;;;;;;7.50;4.70;;;;;;;3.17;82.70;96726.93;106127;1256;72775;-65
2023/12/22 03:28:39;;;;;;;6.20;3.90;;;;;;;3.17;82.68;96734.73;104769;1259;137977;-66
2023/12/22 03:31:07;;;;;;;8.50;5.10;;;;;;;3.17;82.79;96738.73;104909;1260;61194;-64
2023/12/22 03:33:34;;;;;;;3.00;2.40;;;;;;;3.17;82.73;96749.96;108824;1256;139121;-66
2023/12/22 03:36:00;;;;;;;1.20;1.00;;;;;;;3.16;82.83;96751.71;108985;1254;67232;-66
2023/12/22 03:38:27;;;;;;;1.50;1.40;;;;;;;3.13;82.57;96755.02;109028;1256;70453;-66
2023/12/22 03:40:54;;;;;;;1.60;1.40;;;;;;;3.08;82.51;96762.35;108911;1256;138242;-65
2023/12/22 03:43:21;;;;;;;3.30;2.00;;;;;;;3.05;82.53;96765.50;108235;1258;61334;-67
2023/12/22 03:45:47;;;;;;;2.20;1.30;;;;;;;3.03;82.50;96780.94;104620;1259;138398;-64
2023/12/22 03:48:14;;;;;;;2.70;1.20;;;;;;;2.97;82.56;96778.73;104865;1256;66258;-65
2023/12/22 03:50:41;;;;;;;2.20;1.40;;;;;;;2.86;82.73;96771.55;104923;1260;72164;-65
2023/12/22 03:53:07;;;;;;;2.90;1.00;;;;;;;2.75;82.73;96769.74;104659;1256;138736;-64
2023/12/22 03:55:34;;;;;;;1.10;0.90;;;;;;;2.67;82.74;96774.31;104760;1260;61266;-64
2023/12/22 03:58:01;;;;;;;0.90;0.80;;;;;;;2.63;82.82;96779.88;104741;1256;138591;-65
2023/12/22 04:00:28;;;;;;;1.30;0.80;;;;;;;2.60;82.90;96780.41;104843;1256;64569;-65
2023/12/22 04:02:54;;;;;;;1.20;0.90;;;;;;;2.56;83.09;96777.51;104953;1256;72204;-65
2023/12/22 04:05:21;;;;;;;0.80;0.70;;;;;;;2.50;83.07;96770.62;104788;1261;138132;-67
2023/12/22 04:07:48;;;;;;;3.90;1.30;;;;;;;2.47;83.09;96771.52;104781;1261;60804;-65
2023/12/22 04:10:17;;;;;;;1.70;0.80;;;;;;;2.47;83.18;96765.80;104658;1256;138298;-65
2023/12/22 04:12:44;;;;;;;1.40;0.80;;;;;;;2.49;83.29;96767.17;108965;1256;66451;-66
2023/12/22 04:15:11;;;;;;;2.20;1.10;;;;;;;2.50;83.38;96770.45;109029;1256;70908;-66
2023/12/22 04:17:37;;;;;;;2.10;1.40;;;;;;;2.51;83.27;96784.80;108920;1256;137960;-66
2023/12/22 04:20:07;;;;;;;2.50;1.40;;;;;;;2.49;83.24;96788.11;105124;1256;61885;-66
2023/12/22 04:22:33;;;;;;;2.50;1.30;;;;;;;2.45;83.07;96790.73;108883;1255;138237;-65
2023/12/22 04:25:00;;;;;;;2.90;1.50;;;;;;;2.38;83.10;96800.80;109040;1256;65881;-66
2023/12/22 04:27:27;;;;;;;3.30;1.40;;;;;;;2.33;83.24;96803.27;108897;1256;139226;-65
2023/12/22 04:29:53;;;;;;;2.10;1.10;;;;;;;2.27;83.23;96807.45;109008;1256;58893;-65
2023/12/22 04:32:20;;;;;;;3.00;1.10;;;;;;;2.23;83.32;96813.19;109039;1256;59172;-65
2023/12/22 04:34:47;;;;;;;1.60;1.00;;;;;;;2.19;83.53;96807.84;105366;1256;138488;-67
2023/12/22 04:37:13;;;;;;;1.10;1.00;;;;;;;2.19;83.92;96812.33;104933;1256;66912;-66
2023/12/22 04:39:40;;;;;;;1.50;1.00;;;;;;;2.18;83.75;96814.93;104786;1260;138096;-65
2023/12/22 04:42:07;;;;;;;1.60;1.00;;;;;;;2.18;83.90;96809.57;104830;1256;61451;-66
2023/12/22 04:44:34;;;;;;;1.60;1.00;;;;;;;2.16;83.97;96806.30;104868;1256;61350;-65
2023/12/22 04:47:01;;;;;;;1.80;1.00;;;;;;;2.14;84.01;96802.69;107623;1256;138199;-65
2023/12/22 04:49:28;;;;;;;3.50;0.90;;;;;;;2.15;84.13;96806.13;105055;1260;66592;-65
2023/12/22 04:51:55;;;;;;;2.20;1.20;;;;;;;2.17;84.28;96808.70;104790;1256;138607;-65
2023/12/22 04:54:21;;;;;;;2.10;1.70;;;;;;;2.21;84.23;96802.99;104882;1260;61235;-65
2023/12/22 04:56:48;;;;;;;1.30;1.00;;;;;;;2.23;84.35;96802.27;104852;1256;61818;-66
2023/12/22 04:59:15;;;;;;;3.70;1.00;;;;;;;2.24;84.40;96800.20;105672;1256;138296;-66
2023/12/22 05:01:42;;;;;;;4.20;1.50;;;;;;;2.26;84.36;96795.17;104933;1256;66073;-65
2023/12/22 05:04:09;;;;;;;4.30;1.50;;;;;;;2.28;84.46;96790.15;105106;1256;138182;-66
2023/12/22 05:06:36;;;;;;;7.30;1.30;;;;;;;2.33;84.37;96789.25;104745;1256;61421;-65
2023/12/22 05:09:03;;;;;;;5.20;1.80;;;;;;;2.34;84.31;96793.04;104751;1260;61257;-66
2023/12/22 05:11:30;;;;;;;6.60;1.70;;;;;;;2.38;84.41;96790.77;104668;1256;138852;-65
2023/12/22 05:13:57;;;;;;;6.80;2.20;;;;;;;2.39;84.30;96797.35;104768;1258;66740;-66
2023/12/22 05:16:23;;;;;;;10.00;3.20;;;;;;;2.38;84.12;96786.80;104867;1259;138274;-66
2023/12/22 05:18:50;;;;;;;7.30;2.50;;;;;;;2.37;84.29;96793.73;104988;1255;61166;-66
2023/12/22 05:21:17;;;;;;;12.80;2.80;;;;;;;2.38;84.28;96793.39;104990;1260;59962;-65
2023/12/22 05:23:43;;;;;;;6.60;2.60;;;;;;;2.38;84.26;96794.58;108930;1256;138389;-66
2023/12/22 05:26:10;;;;;;;9.10;2.90;;;;;;;2.38;84.25;96792.51;109038;1256;65402;-66
2023/12/22 05:28:36;;;;;;;9.70;2.70;;;;;;;2.39;84.36;96793.89;108919;1255;138645;-65
2023/12/22 05:31:03;;;;;;;11.20;2.50;;;;;;;2.40;84.37;96795.60;106852;1256;61333;-66
2023/12/22 05:33:30;;;;;;;9.30;2.80;;;;;;;2.42;84.15;96800.95;104699;1260;139608;-66
2023/12/22 05:35:56;;;;;;;12.60;3.60;;;;;;;2.42;84.18;96796.29;104977;1256;73845;-68
2023/12/22 05:38:23;;;;;;;14.40;3.30;;;;;;;2.44;84.20;96800.95;104841;1261;66414;-68
2023/12/22 05:40:50;;;;;;;16.40;3.90;;;;;;;2.45;84.08;96803.70;104700;1257;138287;-66
2023/12/22 05:43:17;;;;;;;20.10;3.40;;;;;;;2.48;84.18;96809.41;105016;1256;61365;-68
2023/12/22 05:45:44;;;;;;;15.10;4.00;;;;;;;2.44;83.87;96803.38;104711;1264;138996;-66
2023/12/22 05:48:10;;;;;;;15.80;3.60;;;;;;;2.44;83.78;96808.21;104863;1256;75540;-67
2023/12/22 05:50:37;;;;;;;16.20;4.10;;;;;;;2.42;83.79;96817.57;104848;1256;65613;-68
2023/12/22 05:53:04;;;;;;;16.90;3.90;;;;;;;2.38;83.64;96813.98;104678;1256;138817;-67
2023/12/22 05:55:31;;;;;;;20.80;4.10;;;;;;;2.38;83.92;96813.80;104921;1261;61360;-67
2023/12/22 05:57:58;;;;;;;17.20;4.70;;;;;;;2.41;83.84;96821.38;104639;1256;138554;-66
2023/12/22 06:00:26;;;;;;;14.00;3.90;;;;;;;2.48;84.00;96830.34;104903;1255;75030;-68
2023/12/22 06:02:53;;;;;;;16.60;4.00;;;;;;;2.53;84.09;96838.09;104793;1260;67273;-66
2023/12/22 06:05:20;;;;;;;12.80;3.10;;;;;;;2.55;83.86;96840.34;108834;1255;138836;-66
2023/12/22 06:07:47;;;;;;;11.80;3.20;;;;;;;2.51;83.93;96835.68;107278;1256;59760;-64
2023/12/22 06:10:13;;;;;;;7.40;2.10;;;;;;;2.47;83.61;96844.36;104737;1261;139229;-66
2023/12/22 06:12:40;;;;;;;9.60;2.30;;;;;;;2.42;83.59;96841.10;104784;1256;75563;-65
2023/12/22 06:15:07;;;;;;;9.90;2.70;;;;;;;2.38;83.77;96836.45;104804;1261;67295;-65
2023/12/22 06:17:34;;;;;;;11.90;2.60;;;;;;;2.36;83.79;96848.76;104720;1261;137999;-64
2023/12/22 06:20:01;;;;;;;11.40;2.90;;;;;;;2.35;83.78;96847.36;104829;1256;60396;-65
2023/12/22 06:22:27;;;;;;;7.10;2.70;;;;;;;2.37;83.88;96852.89;104795;1260;138481;-65
2023/12/22 06:24:54;;;;;;;6.30;2.50;;;;;;;2.40;83.95;96862.40;104784;1256;75384;-65
2023/12/22 06:27:21;;;;;;;9.70;2.60;;;;;;;2.43;84.05;96870.86;104798;1260;139395;-63
2023/12/22 06:29:47;;;;;;;8.80;2.30;;;;;;;2.46;84.01;96876.02;104894;1256;73249;-64
2023/12/22 06:32:14;;;;;;;5.70;2.40;;;;;;;2.48;83.93;96877.06;104793;1255;61366;-62
2023/12/22 06:34:41;;;;;;;7.50;2.40;;;;;;;2.49;83.95;96882.93;104707;1259;138266;-63
2023/12/22 06:37:08;;;;;;;8.90;2.40;;;;;;;2.50;83.95;96881.20;104861;1255;75950;-63
2023/12/22 06:39:34;;;;;;;14.00;3.20;;;;;;;2.49;83.78;96875.84;104726;1256;138287;-63
2023/12/22 06:42:01;;;;;;;13.90;3.10;;;;;;;2.51;83.85;96895.90;104782;1256;73589;-64
2023/12/22 06:44:29;;;;;;;15.80;3.20;;;;;;;2.49;83.83;96895.57;104826;1257;61256;-67
2023/12/22 06:46:56;;;;;;;6.90;2.50;;;;;;;2.49;83.71;96902.48;104896;1256;138316;-67
2023/12/22 06:49:23;;;;;;;6.80;2.20;;;;;;;2.48;83.63;96910.81;104818;1260;75217;-66
2023/12/22 06:51:49;;;;;;;9.20;2.30;;;;;;;2.44;83.58;96889.89;104704;1260;138534;-67
2023/12/22 06:54:16;;;;;;;10.00;2.40;;;;;;;2.39;83.33;96892.16;104763;1256;72902;-66
2023/12/22 06:56:42;;;;;;;12.20;2.70;;;;;;;2.35;83.48;96890.61;104785;1262;60752;-67
2023/12/22 06:59:11;;;;;;;13.00;5.00;;;;;;;2.33;83.80;96889.77;104618;1260;138408;-67
2023/12/22 07:01:38;;;;;;;7.80;2.80;;;;;;;2.34;83.77;96898.59;104717;1256;73942;-67
2023/12/22 07:04:06;;;;;;;11.10;2.50;;;;;;;2.34;83.79;96887.67;105451;1261;138626;-67
2023/12/22 07:06:33;;;;;;;10.70;2.40;;;;;;;2.36;83.90;96886.80;106040;1260;72778;-66
2023/12/22 07:09:16;;;;;;;8.00;2.00;;;;;;;2.38;83.86;96884.55;104818;1260;61437;-66
2023/12/22 07:11:50;;;;;;;8.90;2.90;;;;;;;2.39;83.89;96877.80;104698;1262;137329;-72
2023/12/22 07:14:17;;;;;;;10.80;2.60;;;;;;;2.38;84.08;96880.92;108976;1256;74222;-72
2023/12/22 07:16:43;;;;;;;6.20;1.70;;;;;;;2.39;84.05;96881.60;108873;1255;138855;-72
2023/12/22 07:19:13;;;;;;;7.30;2.00;;;;;;;2.43;84.03;96886.43;109031;1256;72536;-71
2023/12/22 07:21:40;;;;;;;8.50;2.20;;;;;;;2.41;84.03;96901.14;105580;1260;138305;-71
2023/12/22 07:24:07;;;;;;;8.40;2.80;;;;;;;2.39;83.89;96894.23;104871;1256;61301;-71
2023/12/22 07:26:34;;;;;;;11.70;6.70;;;;;;;2.38;83.89;96897.86;104753;1256;75735;-71
2023/12/22 07:29:01;;;;;;;27.30;22.60;;;;;;;2.41;83.98;96898.89;104585;1256;139161;-72
2023/12/22 07:31:28;;;;;;;18.40;10.00;;;;;;;2.44;84.17;96891.80;104751;1257;73428;-73
2023/12/22 07:33:55;;;;;;;10.60;7.50;;;;;;;2.42;83.80;96891.80;104731;1256;138637;-73
2023/12/22 07:36:21;;;;;;;14.80;9.20;;;;;;;2.37;83.78;96889.23;104935;1262;61250;-72
2023/12/22 07:38:48;;;;;;;14.80;8.20;;;;;;;2.35;83.77;96889.05;104937;1259;73790;-72
2023/12/22 07:41:15;;;;;;;15.20;8.60;;;;;;;2.37;83.98;96882.83;104764;1259;138236;-72
2023/12/22 07:43:42;;;;;;;18.20;10.00;;;;;;;2.39;84.07;96881.60;106153;1256;71760;-71
2023/12/22 07:46:09;;;;;;;19.10;10.20;;;;;;;2.43;83.98;96884.01;104592;1262;139007;-72
2023/12/22 07:48:35;;;;;;;12.80;7.30;;;;;;;2.46;83.97;96884.69;104521;1264;61251;-72
2023/12/22 07:51:03;;;;;;;11.60;3.90;;;;;;;2.48;83.81;96883.80;104678;1256;75042;-72
2023/12/22 07:53:30;;;;;;;11.60;3.60;;;;;;;2.52;83.93;96883.79;104735;1258;138746;-72
2023/12/22 07:55:59;;;;;;;12.00;5.90;;;;;;;2.55;83.68;96885.33;104748;1257;73924;-72
2023/12/22 07:58:25;;;;;;;15.40;9.60;;;;;;;2.57;83.76;96880.30;108801;1255;138785;-72
2023/12/22 08:00:52;;;;;;;16.80;9.40;;;;;;;2.58;83.52;96881.34;109072;1256;60356;-72
2023/12/22 08:03:19;;;;;;;12.00;6.20;;;;;;;2.58;83.58;96878.91;109099;1256;72504;-72
2023/12/22 08:05:46;;;;;;;12.80;6.20;;;;;;;2.59;83.49;96876.83;106185;1256;63986;-72
2023/12/22 08:08:13;;;;;;;19.50;11.70;;;;;;;2.60;83.46;96872.84;104691;1260;73175;-71
2023/12/22 08:10:40;;;;;;;10.50;5.00;;;;;;;2.64;83.49;96868.49;104513;1257;139366;-72
2023/12/22 08:13:07;;;;;;;18.60;8.10;;;;;;;2.67;83.47;96860.33;104727;1259;62040;-72
2023/12/22 08:15:33;;;;;;;12.30;6.90;;;;;;;2.67;83.31;96864.48;104750;1260;138921;-71
2023/12/22 08:18:00;;;;;;;21.70;8.60;;;;;;;2.65;83.27;96850.64;104845;1262;66825;-72
2023/12/22 08:20:27;;;;;;;16.40;5.40;;;;;;;2.65;83.33;96849.45;104903;1256;73111;-73
2023/12/22 08:22:54;;;;;;;15.60;8.00;;;;;;;2.64;83.30;96849.96;104640;1259;137652;-72
2023/12/22 08:25:20;;;;;;;12.60;5.90;;;;;;;2.64;83.39;96851.36;104872;1260;61149;-72
2023/12/22 08:27:47;;;;;;;10.70;4.40;;;;;;;2.66;83.40;96849.77;104766;1258;138993;-71
2023/12/22 08:30:17;;;;;;;12.20;5.50;;;;;;;2.67;83.42;96848.92;104897;1261;65267;-72
2023/12/22 08:32:43;;;;;;;6.80;3.80;;;;;;;2.70;83.58;96843.17;104628;1260;72399;-71
2023/12/22 08:35:10;;;;;;;8.30;4.20;;;;;;;2.71;83.58;96842.83;104628;1262;138381;-71
2023/12/22 08:37:37;;;;;;;7.10;3.30;;;;;;;2.69;83.35;96846.99;104858;1261;61468;-71
2023/12/22 08:40:05;;;;;;;8.60;3.70;;;;;;;2.65;83.43;96851.36;104770;1258;138519;-70
2023/12/22 08:42:32;;;;;;;8.20;3.50;;;;;;;2.66;83.53;96853.07;104884;1260;67547;-71
2023/12/22 08:44:59;;;;;;;8.00;3.60;;;;;;;2.67;83.56;96856.70;104936;1260;71656;-66
2023/12/22 08:47:25;;;;;;;10.00;2.80;;;;;;;2.71;83.60;96856.49;104718;1256;138243;-67
2023/12/22 08:49:52;;;;;;;9.80;2.90;;;;;;;2.73;83.47;96860.65;104785;1269;60279;-66
2023/12/22 08:52:19;;;;;;;8.80;3.30;;;;;;;2.75;83.46;96852.50;104775;1260;138693;-70
2023/12/22 08:54:45;;;;;;;13.50;3.80;;;;;;;2.74;83.28;96857.88;104766;1260;68157;-66
2023/12/22 08:57:12;;;;;;;11.20;2.80;;;;;;;2.77;83.47;96856.81;104848;1259;74045;-66
2023/12/22 08:59:39;;;;;;;14.30;3.60;;;;;;;2.77;83.32;96856.28;104802;1260;138982;-66
2023/12/22 09:02:06;;;;;;;8.60;2.70;;;;;;;2.77;83.34;96859.59;104785;1260;61353;-66
2023/12/22 09:04:32;;;;;;;10.20;2.90;;;;;;;2.74;83.10;96857.17;104671;1257;138559;-66
2023/12/22 09:06:59;;;;;;;10.00;3.20;;;;;;;2.71;83.16;96855.98;104768;1268;66144;-67
2023/12/22 09:09:27;;;;;;;12.40;3.20;;;;;;;2.70;83.29;96854.09;104707;1260;138733;-65
2023/12/22 09:11:54;;;;;;;10.70;3.10;;;;;;;2.66;83.31;96854.27;108925;1256;59317;-66
2023/12/22 09:14:21;;;;;;;11.60;3.70;;;;;;;2.62;83.25;96854.83;109008;1256;59102;-68
2023/12/22 09:16:47;;;;;;;14.80;3.40;;;;;;;2.60;83.39;96854.14;108884;1255;138681;-66
2023/12/22 09:19:14;;;;;;;8.00;2.90;;;;;;;2.61;83.40;96858.83;108936;1260;66433;-67
2023/12/22 09:21:44;;;;;;;13.40;3.20;;;;;;;2.60;83.44;96859.85;107328;1260;138322;-66
2023/12/22 09:24:12;;;;;;;10.30;2.80;;;;;;;2.58;83.39;96863.16;106102;1260;59712;-67
2023/12/22 09:26:39;;;;;;;8.70;2.90;;;;;;;2.58;83.57;96860.91;106033;1257;61263;-66
2023/12/22 09:29:06;;;;;;;8.20;2.80;;;;;;;2.59;83.54;96852.77;104631;1257;138069;-66
2023/12/22 09:31:32;;;;;;;7.60;2.40;;;;;;;2.59;83.54;96847.92;106004;1260;65684;-67
2023/12/22 09:33:59;;;;;;;7.80;2.50;;;;;;;2.57;83.47;96841.88;105838;1260;138419;-66
2023/12/22 09:36:26;;;;;;;4.90;2.00;;;;;;;2.55;83.50;96843.80;104710;1259;61267;-66
2023/12/22 09:38:52;;;;;;;5.00;2.30;;;;;;;2.55;83.63;96842.59;104817;1260;61180;-66
2023/12/22 09:41:19;;;;;;;8.60;2.70;;;;;;;2.59;83.90;96838.23;104793;1259;138080;-65
2023/12/22 09:43:46;;;;;;;4.60;2.30;;;;;;;2.63;83.87;96834.23;104677;1261;65538;-66
2023/12/22 09:46:14;;;;;;;5.70;2.30;;;;;;;2.69;83.93;96837.66;104657;1257;138527;-65
2023/12/22 09:48:42;;;;;;;6.10;2.20;;;;;;;2.76;84.08;96837.60;105947;1259;61389;-67
2023/12/22 09:51:09;;;;;;;3.50;1.60;;;;;;;2.82;84.01;96835.48;104753;1260;61244;-72
2023/12/22 09:53:36;;;;;;;1.90;1.30;;;;;;;2.88;83.92;96832.67;104541;1261;138313;-66
2023/12/22 09:56:03;;;;;;;2.30;1.30;;;;;;;2.96;83.99;96826.55;104788;1260;67655;-67
2023/12/22 09:58:30;;;;;;;2.90;1.40;;;;;;;2.99;83.93;96830.69;105961;1261;138152;-66
2023/12/22 10:00:56;;;;;;;2.50;1.60;;;;;;;3.01;83.70;96829.10;106037;1257;59548;-66
2023/12/22 10:03:24;;;;;;;2.30;1.40;;;;;;;3.00;83.62;96833.09;104642;1261;138282;-67
2023/12/22 10:05:51;;;;;;;2.70;1.40;;;;;;;2.99;83.59;96829.13;104553;1262;75393;-66
2023/12/22 10:08:19;;;;;;;2.60;1.60;;;;;;;2.99;83.63;96831.71;104729;1260;65720;-66
2023/12/22 10:10:47;;;;;;;3.90;1.80;;;;;;;2.98;83.56;96829.30;108847;1258;137668;-72
2023/12/22 10:13:13;;;;;;;5.00;1.90;;;;;;;2.99;83.58;96824.61;107959;1258;60127;-72
2023/12/22 10:15:43;;;;;;;5.20;1.70;;;;;;;3.01;83.57;96816.80;104745;1269;138232;-71
2023/12/22 10:18:10;;;;;;;2.90;1.70;;;;;;;3.02;83.55;96811.59;104597;1263;75186;-72
2023/12/22 10:20:36;;;;;;;2.70;1.70;;;;;;;3.08;83.68;96808.77;104779;1257;66335;-66
2023/12/22 10:23:03;;;;;;;2.70;1.70;;;;;;;3.14;83.59;96801.98;104579;1258;138344;-71
2023/12/22 10:25:30;;;;;;;3.70;1.40;;;;;;;3.17;83.56;96797.43;104855;1262;61895;-71
2023/12/22 10:27:57;;;;;;;2.30;1.30;;;;;;;3.23;83.74;96803.09;104524;1262;138347;-66
2023/12/22 10:30:24;;;;;;;2.60;1.60;;;;;;;3.25;83.52;96802.73;104856;1260;74929;-65
2023/12/22 10:32:51;;;;;;;2.80;1.20;;;;;;;3.24;83.38;96802.56;109024;1258;67277;-67
2023/12/22 10:35:20;;;;;;;1.60;1.30;;;;;;;3.25;83.47;96798.06;108013;1258;138050;-66
2023/12/22 10:37:47;;;;;;;2.30;1.70;;;;;;;3.29;83.49;96800.61;109071;1256;59366;-71
2023/12/22 10:40:14;;;;;;;3.10;1.80;;;;;;;3.32;83.39;96799.20;108759;1254;193021;-68
2023/12/22 10:42:41;;;;;;;2.30;1.50;;;;;;;3.37;83.52;96794.65;106747;1258;75402;-71
2023/12/22 10:45:08;;;;;;;1.90;1.60;;;;;;;3.41;83.37;96799.11;104920;1258;65682;-71
2023/12/22 10:47:35;;;;;;;1.50;1.20;;;;;;;3.42;83.22;96799.96;104605;1255;138334;-71
2023/12/22 10:50:04;;;;;;;1.40;1.10;;;;;;;3.45;83.28;96811.35;104824;1260;61631;-71
2023/12/22 10:52:30;;;;;;;2.40;1.50;;;;;;;3.53;83.37;96809.38;109012;1257;138414;-66
2023/12/22 10:54:58;;;;;;;2.20;1.40;;;;;;;3.58;83.42;96814.17;109055;1256;75563;-72
2023/12/22 10:57:24;;;;;;;2.80;1.60;;;;;;;3.64;83.24;96808.92;105504;1257;137609;-70
2023/12/22 10:59:51;;;;;;;3.60;1.40;;;;;;;3.65;83.06;96806.65;104620;1259;73893;-72
2023/12/22 11:02:19;;;;;;;1.90;1.20;;;;;;;3.64;83.04;96803.54;104825;1261;61352;-71
2023/12/22 11:04:51;;;;;;;2.60;1.20;;;;;;;3.70;83.20;96799.14;105388;1260;139478;-72
2023/12/22 11:07:19;;;;;;;1.90;1.40;;;;;;;3.82;83.26;96804.20;104813;1257;75985;-71
2023/12/22 11:09:46;;;;;;;3.30;1.40;;;;;;;3.87;83.06;96801.89;104938;1261;138447;-72
2023/12/22 11:12:13;;;;;;;2.20;1.60;;;;;;;3.90;83.11;96806.54;104762;1259;72353;-72
2023/12/22 11:14:39;;;;;;;1.70;1.40;;;;;;;3.93;83.07;96807.02;104843;1263;61247;-72
2023/12/22 11:17:06;;;;;;;1.80;1.40;;;;;;;3.92;82.95;96811.36;104898;1261;139330;-72
2023/12/22 11:19:33;;;;;;;2.60;1.60;;;;;;;3.94;82.91;96813.80;104957;1257;75244;-72
2023/12/22 11:21:59;;;;;;;11.10;5.10;;;;;;;3.97;83.03;96819.11;104967;1258;139160;-72
2023/12/22 11:24:26;;;;;;;6.10;3.20;;;;;;;3.97;82.76;96820.34;104694;1261;73379;-71
2023/12/22 11:26:53;;;;;;;5.90;3.00;;;;;;;3.95;82.64;96825.73;104941;1263;61399;-70